MSC Sinfonia — H8XH — position and weather

sailwx.info

Track history (hours):
 
Tides and Currents Weather Stations Pressure Air Temp Water Temp Dewpoint Dewpoint Depression Visibility Wind Speed Wind Dir Waves Ship Positions

MSC Sinfonia

Last reported at 2017-Nov-20 00:30 UTC. Time now 2017-Nov-23 09:44 UTC.
Position S 29°44' E 031°24'.

Length 251 m; draft 6.8 m.

Type: Passenger vessel. MMSI: 356715971.

Date/timePositionNaut miles runAvg speedWind from/ knotsBaromVisibWave heightAir tempDewpointWater temp
2017-Nov-20 00:30S 29°44' E 031°24'5 9.2
2017-Nov-20 00:00S 29°40' E 031°27'4 8.9
2017-Nov-19 23:30S 29°37' E 031°31'4 8.9
2017-Nov-19 23:00S 29°34' E 031°35'4 8.7
2017-Nov-19 22:30S 29°31' E 031°38'4 8.1
2017-Nov-19 22:00S 29°28' E 031°42'4 7.8
2017-Nov-19 21:30S 29°26' E 031°45'4 8.1
2017-Nov-19 21:00S 29°23' E 031°48'4 8.5
2017-Nov-19 20:30S 29°20' E 031°51'5 8.6
2017-Nov-19 19:58S 29°16' E 031°55'710.2
2017-Nov-19 19:18S 29°12' E 032°01'3 9.9
2017-Nov-19 18:57S 29°10' E 032°04'7 9.7
2017-Nov-19 18:17S 29°05' E 032°10'4 9.4
2017-Nov-19 17:50S 29°02' E 032°13'3 9.7
2017-Nov-19 17:30S 28°59' E 032°15'5 9.6
2017-Nov-19 17:00S 28°56' E 032°18'5 9.5
2017-Nov-19 16:30S 28°52' E 032°21'13 9.3
2017-Nov-19 15:05S 28°40' E 032°28'110.8
2017-Nov-19 15:00S 28°39' E 032°29'511.0
2017-Nov-19 14:30S 28°34' E 032°31'1011.2
2017-Nov-19 13:37S 28°25' E 032°34'311.4
2017-Nov-19 13:23S 28°22' E 032°34'121 2.4
2017-Nov-17 11:57S 29°52' E 031°02'0 0.0
2017-Nov-17 11:30S 29°52' E 031°02'0 0.0
2017-Nov-17 11:00S 29°52' E 031°02'0 0.0
2017-Nov-17 10:30S 29°52' E 031°02'0 0.0
2017-Nov-17 10:00S 29°52' E 031°02'0 0.0
2017-Nov-17 09:27S 29°52' E 031°02'0 0.0
2017-Nov-17 09:00S 29°52' E 031°02'0 0.0
2017-Nov-17 08:30S 29°52' E 031°02'0 0.0
2017-Nov-17 08:00S 29°52' E 031°02'0 0.0
2017-Nov-17 07:30S 29°52' E 031°02'0 0.0
2017-Nov-17 07:00S 29°52' E 031°02'0 0.0
2017-Nov-17 06:30S 29°52' E 031°02'0 0.0
2017-Nov-17 06:00S 29°52' E 031°02'0 0.0
2017-Nov-17 05:30S 29°52' E 031°02'0 0.2
2017-Nov-17 05:00S 29°52' E 031°02'3 6.3
2017-Nov-17 04:30S 29°50' E 031°05'714.0
2017-Nov-17 04:00S 29°47' E 031°12'714.3
2017-Nov-17 03:30S 29°43' E 031°18'714.0
2017-Nov-17 03:00S 29°39' E 031°25'713.4
2017-Nov-17 02:30S 29°34' E 031°30'714.1
2017-Nov-17 02:00S 29°30' E 031°37'714.1
2017-Nov-17 01:30S 29°25' E 031°42'713.6
2017-Nov-17 01:00S 29°20' E 031°48'  
2017-Nov-13 02:01S 29°49' E 031°08'4 7.1
2017-Nov-13 01:31S 29°48' E 031°12'3 7.0
2017-Nov-13 01:01S 29°48' E 031°16'3 6.2
2017-Nov-13 00:31S 29°47' E 031°20'4 7.2
2017-Nov-13 00:01S 29°45' E 031°23'4 7.1
2017-Nov-12 23:31S 29°42' E 031°26'4 7.3
2017-Nov-12 23:01S 29°39' E 031°29'4 7.4
2017-Nov-12 22:31S 29°37' E 031°32'4 7.3
2017-Nov-12 22:01S 29°35' E 031°35'4 7.1
2017-Nov-12 21:30S 29°33' E 031°38'4 7.3
2017-Nov-12 21:00S 29°31' E 031°42'3 5.6
2017-Nov-12 20:30S 29°29' E 031°44'1 1.8
2017-Nov-12 20:00S 29°28' E 031°43'1 2.6
2017-Nov-12 19:30S 29°28' E 031°44'4 7.8
2017-Nov-12 19:00S 29°25' E 031°47'6 0.1
2017-Nov-10 15:04S 29°29' E 031°42'116.2
2017-Nov-10 15:00S 29°30' E 031°42'816.4
2017-Nov-10 14:30S 29°35' E 031°34'917.2
2017-Nov-10 14:00S 29°41' E 031°27'816.4
2017-Nov-10 13:30S 29°47' E 031°20'815.8
2017-Nov-10 13:01S 29°50' E 031°12'813.3
2017-Nov-10 12:26S 29°52' E 031°03'1 2.9
2017-Nov-10 12:00S 29°52' E 031°02'0 0.0
2017-Nov-10 11:29S 29°52' E 031°02'0 0.0
2017-Nov-10 10:56S 29°52' E 031°02'0 0.0
2017-Nov-10 10:23S 29°52' E 031°02'0 0.0
2017-Nov-10 09:59S 29°52' E 031°02'0 0.0
2017-Nov-10 09:29S 29°52' E 031°02'0 0.0
2017-Nov-10 08:56S 29°52' E 031°02'0 0.0
2017-Nov-10 08:29S 29°52' E 031°02'0 0.0
2017-Nov-10 07:59S 29°52' E 031°02'0 0.0
2017-Nov-10 07:23S 29°52' E 031°02'0 0.0
2017-Nov-10 06:56S 29°52' E 031°02'0 0.0
2017-Nov-10 06:20S 29°52' E 031°02'0 0.0
2017-Nov-10 05:59S 29°52' E 031°02'0 0.0
2017-Nov-10 05:29S 29°52' E 031°02'0 0.0
2017-Nov-10 04:59S 29°52' E 031°02'0 0.0
2017-Nov-10 04:29S 29°52' E 031°02'0 0.0
2017-Nov-10 03:59S 29°52' E 031°02'0 0.0
2017-Nov-10 03:29S 29°52' E 031°02'0 0.1
2017-Nov-10 03:00S 29°52' E 031°02'3 5.5
2017-Nov-10 02:30S 29°51' E 031°05'510.6
2017-Nov-10 02:00S 29°49' E 031°10'611.8
2017-Nov-10 01:30S 29°49' E 031°17'611.6
2017-Nov-10 01:00S 29°45' E 031°22'612.6
2017-Nov-10 00:30S 29°40' E 031°27'  
Track history (hours):
 
Tides and Currents Weather Stations Pressure Air Temp Water Temp Dewpoint Dewpoint Depression Visibility Wind Speed Wind Dir Waves Ship Positions

MSC Sinfonia

Last reported at 2017-Nov-20 00:30 UTC. Time now 2017-Nov-23 09:44 UTC.
Position S 29°44' E 031°24'.

Length 251 m; draft 6.8 m.

Type: Passenger vessel. MMSI: 356715971.

Date/timePositionNaut miles runAvg speedWind from/ knotsBaromVisibWave heightAir tempDewpointWater temp
2017-Nov-20 00:30S 29°44' E 031°24'5 9.2
2017-Nov-20 00:00S 29°40' E 031°27'4 8.9
2017-Nov-19 23:30S 29°37' E 031°31'4 8.9
2017-Nov-19 23:00S 29°34' E 031°35'4 8.7
2017-Nov-19 22:30S 29°31' E 031°38'4 8.1
2017-Nov-19 22:00S 29°28' E 031°42'4 7.8
2017-Nov-19 21:30S 29°26' E 031°45'4 8.1
2017-Nov-19 21:00S 29°23' E 031°48'4 8.5
2017-Nov-19 20:30S 29°20' E 031°51'5 8.6
2017-Nov-19 19:58S 29°16' E 031°55'710.2
2017-Nov-19 19:18S 29°12' E 032°01'3 9.9
2017-Nov-19 18:57S 29°10' E 032°04'7 9.7
2017-Nov-19 18:17S 29°05' E 032°10'4 9.4
2017-Nov-19 17:50S 29°02' E 032°13'3 9.7
2017-Nov-19 17:30S 28°59' E 032°15'5 9.6
2017-Nov-19 17:00S 28°56' E 032°18'5 9.5
2017-Nov-19 16:30S 28°52' E 032°21'13 9.3
2017-Nov-19 15:05S 28°40' E 032°28'110.8
2017-Nov-19 15:00S 28°39' E 032°29'511.0
2017-Nov-19 14:30S 28°34' E 032°31'1011.2
2017-Nov-19 13:37S 28°25' E 032°34'311.4
2017-Nov-19 13:23S 28°22' E 032°34'121 2.4
2017-Nov-17 11:57S 29°52' E 031°02'0 0.0
2017-Nov-17 11:30S 29°52' E 031°02'0 0.0
2017-Nov-17 11:00S 29°52' E 031°02'0 0.0
2017-Nov-17 10:30S 29°52' E 031°02'0 0.0
2017-Nov-17 10:00S 29°52' E 031°02'0 0.0
2017-Nov-17 09:27S 29°52' E 031°02'0 0.0
2017-Nov-17 09:00S 29°52' E 031°02'0 0.0
2017-Nov-17 08:30S 29°52' E 031°02'0 0.0
2017-Nov-17 08:00S 29°52' E 031°02'0 0.0
2017-Nov-17 07:30S 29°52' E 031°02'0 0.0
2017-Nov-17 07:00S 29°52' E 031°02'0 0.0
2017-Nov-17 06:30S 29°52' E 031°02'0 0.0
2017-Nov-17 06:00S 29°52' E 031°02'0 0.0
2017-Nov-17 05:30S 29°52' E 031°02'0 0.2
2017-Nov-17 05:00S 29°52' E 031°02'3 6.3
2017-Nov-17 04:30S 29°50' E 031°05'714.0
2017-Nov-17 04:00S 29°47' E 031°12'714.3
2017-Nov-17 03:30S 29°43' E 031°18'714.0
2017-Nov-17 03:00S 29°39' E 031°25'713.4
2017-Nov-17 02:30S 29°34' E 031°30'714.1
2017-Nov-17 02:00S 29°30' E 031°37'714.1
2017-Nov-17 01:30S 29°25' E 031°42'713.6
2017-Nov-17 01:00S 29°20' E 031°48'  
2017-Nov-13 02:01S 29°49' E 031°08'4 7.1
2017-Nov-13 01:31S 29°48' E 031°12'3 7.0
2017-Nov-13 01:01S 29°48' E 031°16'3 6.2
2017-Nov-13 00:31S 29°47' E 031°20'4 7.2
2017-Nov-13 00:01S 29°45' E 031°23'4 7.1
2017-Nov-12 23:31S 29°42' E 031°26'4 7.3
2017-Nov-12 23:01S 29°39' E 031°29'4 7.4
2017-Nov-12 22:31S 29°37' E 031°32'4 7.3
2017-Nov-12 22:01S 29°35' E 031°35'4 7.1
2017-Nov-12 21:30S 29°33' E 031°38'4 7.3
2017-Nov-12 21:00S 29°31' E 031°42'3 5.6
2017-Nov-12 20:30S 29°29' E 031°44'1 1.8
2017-Nov-12 20:00S 29°28' E 031°43'1 2.6
2017-Nov-12 19:30S 29°28' E 031°44'4 7.8
2017-Nov-12 19:00S 29°25' E 031°47'6 0.1
2017-Nov-10 15:04S 29°29' E 031°42'116.2
2017-Nov-10 15:00S 29°30' E 031°42'816.4
2017-Nov-10 14:30S 29°35' E 031°34'917.2
2017-Nov-10 14:00S 29°41' E 031°27'816.4
2017-Nov-10 13:30S 29°47' E 031°20'815.8
2017-Nov-10 13:01S 29°50' E 031°12'813.3
2017-Nov-10 12:26S 29°52' E 031°03'1 2.9
2017-Nov-10 12:00S 29°52' E 031°02'0 0.0
2017-Nov-10 11:29S 29°52' E 031°02'0 0.0
2017-Nov-10 10:56S 29°52' E 031°02'0 0.0
2017-Nov-10 10:23S 29°52' E 031°02'0 0.0
2017-Nov-10 09:59S 29°52' E 031°02'0 0.0
2017-Nov-10 09:29S 29°52' E 031°02'0 0.0
2017-Nov-10 08:56S 29°52' E 031°02'0 0.0
2017-Nov-10 08:29S 29°52' E 031°02'0 0.0
2017-Nov-10 07:59S 29°52' E 031°02'0 0.0
2017-Nov-10 07:23S 29°52' E 031°02'0 0.0
2017-Nov-10 06:56S 29°52' E 031°02'0 0.0
2017-Nov-10 06:20S 29°52' E 031°02'0 0.0
2017-Nov-10 05:59S 29°52' E 031°02'0 0.0
2017-Nov-10 05:29S 29°52' E 031°02'0 0.0
2017-Nov-10 04:59S 29°52' E 031°02'0 0.0
2017-Nov-10 04:29S 29°52' E 031°02'0 0.0
2017-Nov-10 03:59S 29°52' E 031°02'0 0.0
2017-Nov-10 03:29S 29°52' E 031°02'0 0.1
2017-Nov-10 03:00S 29°52' E 031°02'3 5.5
2017-Nov-10 02:30S 29°51' E 031°05'510.6
2017-Nov-10 02:00S 29°49' E 031°10'611.8
2017-Nov-10 01:30S 29°49' E 031°17'611.6
2017-Nov-10 01:00S 29°45' E 031°22'612.6
2017-Nov-10 00:30S 29°40' E 031°27'  

Dump ship's entire track history